Time;durP1;ratioP1;P1;durP2;ratioP2;P2;SDS_P1;SDS_P2;PMS_P1;PMS_P2;Temp;Humidity;BMP_temperature;BMP_pressure;BME280_temperature;BME280_humidity;BME280_pressure;Samples;Min_cycle;Max_cycle;Signal;HPM_P1;HPM_P2
2021/08/26 00:01:01;;;;;;;7.47;4.15;;;18.10;86.50;;;;;;5073282;28;20043;-77
2021/08/26 00:06:18;;;;;;;5.93;3.67;;;18.10;86.60;;;;;;5053769;28;20425;-78
2021/08/26 00:08:46;;;;;;;5.82;3.72;;;18.10;86.70;;;;;;5044096;28;20413;-78
2021/08/26 00:11:12;;;;;;;7.68;3.88;;;18.10;86.80;;;;;;5072600;28;20461;-77
2021/08/26 00:13:39;;;;;;;6.50;4.18;;;18.10;86.80;;;;;;5038413;28;20489;-77
2021/08/26 00:16:05;;;;;;;5.30;3.80;;;18.10;86.90;;;;;;5073202;28;20035;-78
2021/08/26 00:18:30;;;;;;;4.65;3.33;;;18.10;87.00;;;;;;5072941;28;20428;-77
2021/08/26 00:20:56;;;;;;;4.78;4.00;;;18.10;87.20;;;;;;5055161;28;20039;-77
2021/08/26 00:23:23;;;;;;;9.52;4.18;;;18.00;87.40;;;;;;5072746;28;20036;-77
2021/08/26 00:25:50;;;;;;;5.93;3.92;;;18.10;87.60;;;;;;5055407;28;20511;-77
2021/08/26 00:28:17;;;;;;;4.68;3.58;;;18.10;87.70;;;;;;5073037;28;20430;-77
2021/08/26 00:30:42;;;;;;;8.00;4.30;;;18.10;87.90;;;;;;5073175;28;20029;-77
2021/08/26 00:33:08;;;;;;;5.10;4.28;;;18.10;88.10;;;;;;5072662;28;20043;-77
2021/08/26 00:35:34;;;;;;;4.65;3.78;;;18.10;88.20;;;;;;5054892;28;20040;-77
2021/08/26 00:37:59;;;;;;;7.72;4.28;;;18.00;88.40;;;;;;5072274;28;20044;-77
2021/08/26 00:40:25;;;;;;;6.32;3.90;;;18.00;88.50;;;;;;5054852;28;20036;-77
2021/08/26 00:42:51;;;;;;;5.97;4.13;;;18.00;88.60;;;;;;5054570;28;20029;-77
2021/08/26 00:45:17;;;;;;;6.10;4.05;;;18.00;88.80;;;;;;5037912;28;20032;-77
2021/08/26 00:47:46;;;;;;;6.63;4.75;;;18.00;89.10;;;;;;5037936;28;20036;-77
2021/08/26 00:50:13;;;;;;;8.10;3.80;;;18.00;90.00;;;;;;5054983;28;20025;-77
2021/08/26 00:52:39;;;;;;;7.03;4.28;;;18.00;89.30;;;;;;5055103;28;20393;-77
2021/08/26 00:55:07;;;;;;;5.18;4.28;;;18.00;89.50;;;;;;5072687;28;20024;-77
2021/08/26 00:57:32;;;;;;;5.18;3.75;;;18.00;89.80;;;;;;5054880;28;20020;-77
2021/08/26 00:59:58;;;;;;;5.63;4.20;;;17.90;89.80;;;;;;5054533;28;20024;-77
2021/08/26 01:02:35;;;;;;;4.55;3.85;;;17.90;90.00;;;;;;5072665;28;20029;-77
2021/08/26 01:05:04;;;;;;;4.00;3.55;;;17.90;90.10;;;;;;5072639;28;20024;-77
2021/08/26 01:07:42;;;;;;;5.03;3.58;;;17.90;90.10;;;;;;5072655;28;20500;-77
2021/08/26 01:10:13;;;;;;;6.57;3.40;;;17.90;90.10;;;;;;5072918;28;20070;-77
2021/08/26 01:12:39;;;;;;;5.22;3.88;;;17.90;90.10;;;;;;5054284;28;20432;-77
2021/08/26 01:15:07;;;;;;;4.65;3.47;;;17.80;90.30;;;;;;5054501;28;20020;-77
2021/08/26 01:17:32;;;;;;;4.97;3.67;;;17.80;90.40;;;;;;5072314;28;20052;-77
2021/08/26 01:20:00;;;;;;;4.50;2.97;;;17.80;90.40;;;;;;5072341;28;20063;-77
2021/08/26 01:22:27;;;;;;;4.75;3.70;;;17.80;90.40;;;;;;5072140;28;20081;-77
2021/08/26 01:24:57;;;;;;;5.47;3.25;;;17.80;90.40;;;;;;5054613;28;20051;-77
2021/08/26 01:27:31;;;;;;;4.00;3.30;;;17.80;90.50;;;;;;5071938;28;20023;-77
2021/08/26 01:29:57;;;;;;;5.72;3.65;;;17.80;90.50;;;;;;5054737;28;20082;-77
2021/08/26 01:32:24;;;;;;;5.00;3.95;;;17.80;90.50;;;;;;5054207;28;20020;-77
2021/08/26 01:34:51;;;;;;;6.75;4.10;;;17.80;90.50;;;;;;5037706;28;20069;-77
2021/08/26 01:37:18;;;;;;;5.13;3.25;;;17.80;90.50;;;;;;5054670;28;20135;-77
2021/08/26 01:39:46;;;;;;;5.63;3.83;;;17.80;90.60;;;;;;5054241;28;20577;-77
2021/08/26 01:42:12;;;;;;;3.38;2.95;;;17.80;90.60;;;;;;5071733;28;20037;-77
2021/08/26 01:44:38;;;;;;;4.28;3.40;;;17.70;90.60;;;;;;5071879;28;20024;-78
2021/08/26 01:47:16;;;;;;;4.68;3.53;;;17.70;90.60;;;;;;5053957;28;20400;-77
2021/08/26 01:49:47;;;;;;;3.83;2.80;;;17.80;90.60;;;;;;5072234;28;20107;-77
2021/08/26 01:52:14;;;;;;;4.85;3.03;;;17.80;90.60;;;;;;5038320;28;20394;-77
2021/08/26 01:54:39;;;;;;;3.85;2.92;;;17.80;90.60;;;;;;5072861;28;20063;-77
2021/08/26 01:57:05;;;;;;;4.60;3.63;;;17.80;90.50;;;;;;5075638;28;20056;-77
2021/08/26 01:59:33;;;;;;;11.88;4.45;;;17.80;90.50;;;;;;5040711;28;20068;-77
2021/08/26 02:01:58;;;;;;;4.13;3.42;;;17.80;90.60;;;;;;5074844;28;20025;-77
2021/08/26 02:04:24;;;;;;;4.85;3.67;;;17.80;90.60;;;;;;5039968;28;20035;-77
2021/08/26 02:06:49;;;;;;;6.35;3.88;;;17.80;90.60;;;;;;5074867;28;20163;-77
2021/08/26 02:09:15;;;;;;;6.20;4.40;;;17.70;90.60;;;;;;5057506;28;20025;-77
2021/08/26 02:11:41;;;;;;;6.15;4.00;;;17.70;90.70;;;;;;5057793;28;20521;-77
2021/08/26 02:14:06;;;;;;;7.63;4.70;;;17.70;90.70;;;;;;5057503;28;20439;-77
2021/08/26 02:16:32;;;;;;;5.95;4.15;;;17.70;90.70;;;;;;5040581;28;20393;-77
2021/08/26 02:18:58;;;;;;;4.07;3.53;;;17.70;90.70;;;;;;5040053;28;20029;-77
2021/08/26 02:21:27;;;;;;;5.45;3.95;;;17.70;90.60;;;;;;5056275;28;20059;-77
2021/08/26 02:23:54;;;;;;;7.85;3.65;;;17.70;90.60;;;;;;5057829;28;20017;-77
2021/08/26 02:26:20;;;;;;;5.70;4.22;;;17.80;90.60;;;;;;5057019;28;20115;-78
2021/08/26 02:28:45;;;;;;;6.80;4.40;;;17.70;90.60;;;;;;5056850;28;20115;-77
2021/08/26 02:31:11;;;;;;;4.60;3.65;;;17.70;90.60;;;;;;5074953;28;20036;-77
2021/08/26 02:33:37;;;;;;;4.70;3.65;;;17.70;90.60;;;;;;5057094;28;20032;-77
2021/08/26 02:36:02;;;;;;;7.18;4.03;;;17.70;90.60;;;;;;5057277;28;20568;-77
2021/08/26 02:38:28;;;;;;;5.75;3.95;;;17.70;90.50;;;;;;5057669;28;20074;-77
2021/08/26 02:40:53;;;;;;;6.07;4.35;;;17.70;90.50;;;;;;5057276;28;20564;-77
2021/08/26 02:43:19;;;;;;;6.05;3.92;;;17.70;90.50;;;;;;5040606;28;20033;-77
2021/08/26 02:45:45;;;;;;;7.55;3.85;;;17.70;90.50;;;;;;5057436;28;20035;-77
2021/08/26 02:48:10;;;;;;;7.72;4.28;;;17.60;90.50;;;;;;5075107;28;20070;-77
2021/08/26 02:50:36;;;;;;;5.55;4.40;;;17.60;90.50;;;;;;5056599;28;20024;-77
2021/08/26 02:53:02;;;;;;;5.90;4.28;;;17.60;90.60;;;;;;5040285;28;20020;-77
2021/08/26 02:55:27;;;;;;;5.75;3.97;;;17.60;90.60;;;;;;5040305;28;20438;-77
2021/08/26 02:57:53;;;;;;;8.32;4.28;;;17.60;90.60;;;;;;5057323;28;20175;-77
2021/08/26 03:00:19;;;;;;;11.07;4.53;;;17.60;90.60;;;;;;5056471;28;20519;-77
2021/08/26 03:02:44;;;;;;;10.98;4.10;;;17.50;90.50;;;;;;5074465;28;20028;-77
2021/08/26 03:05:10;;;;;;;6.38;3.70;;;17.50;90.50;;;;;;5057183;28;20501;-77
2021/08/26 03:07:35;;;;;;;8.32;4.05;;;17.50;90.50;;;;;;5074846;28;20036;-77
2021/08/26 03:10:01;;;;;;;6.45;3.70;;;17.50;90.50;;;;;;5055773;28;20543;-77
2021/08/26 03:12:27;;;;;;;5.70;3.45;;;17.50;90.50;;;;;;5056780;28;20024;-77
2021/08/26 03:14:52;;;;;;;8.15;3.88;;;17.50;90.50;;;;;;5056772;28;20028;-77
2021/08/26 03:17:18;;;;;;;7.82;3.80;;;17.50;90.40;;;;;;5056546;28;20040;-77
2021/08/26 03:19:43;;;;;;;4.82;3.22;;;17.60;90.40;;;;;;5055732;28;20133;-77
2021/08/26 03:22:09;;;;;;;5.40;3.05;;;17.50;90.30;;;;;;5056235;28;20036;-77
2021/08/26 03:24:35;;;;;;;5.70;3.10;;;17.50;90.30;;;;;;5073672;28;20493;-77
2021/08/26 03:27:00;;;;;;;7.85;3.15;;;17.50;90.30;;;;;;5073864;28;20024;-77
2021/08/26 03:29:26;;;;;;;8.82;3.63;;;17.50;90.20;;;;;;5055185;28;20020;-77
2021/08/26 03:31:51;;;;;;;6.45;3.30;;;17.50;90.40;;;;;;5074002;28;20037;-77
2021/08/26 03:34:17;;;;;;;8.32;3.20;;;17.50;90.10;;;;;;5074094;28;20528;-77
2021/08/26 03:36:43;;;;;;;7.57;3.20;;;17.50;90.10;;;;;;5039375;28;20070;-77
2021/08/26 03:39:08;;;;;;;6.65;3.13;;;17.50;90.10;;;;;;5056250;28;20036;-77
2021/08/26 03:41:34;;;;;;;6.60;3.08;;;17.50;89.80;;;;;;5055451;28;20024;-77
2021/08/26 03:43:59;;;;;;;6.38;2.55;;;17.40;89.70;;;;;;5055881;28;20374;-77
2021/08/26 03:46:25;;;;;;;8.80;3.00;;;17.40;89.70;;;;;;5056226;28;20393;-77
2021/08/26 03:48:51;;;;;;;5.88;2.50;;;17.40;89.60;;;;;;5073519;28;20465;-78
2021/08/26 03:51:16;;;;;;;11.77;3.58;;;17.40;89.50;;;;;;5055826;28;20516;-77
2021/08/26 03:53:42;;;;;;;7.75;3.20;;;17.40;89.30;;;;;;5056056;28;20082;-77
2021/08/26 03:56:08;;;;;;;5.25;2.47;;;17.40;89.20;;;;;;5056262;28;20436;-77
2021/08/26 03:58:34;;;;;;;6.00;2.58;;;17.40;89.10;;;;;;5038719;28;20428;-77
2021/08/26 04:01:03;;;;;;;9.55;3.08;;;17.30;88.80;;;;;;5073433;28;20043;-77
2021/08/26 04:03:29;;;;;;;7.90;3.15;;;17.30;89.20;;;;;;5073505;28;20028;-77
2021/08/26 04:05:54;;;;;;;6.78;2.75;;;17.30;89.20;;;;;;5055764;28;20094;-77
2021/08/26 04:08:20;;;;;;;9.05;2.92;;;17.30;88.20;;;;;;5038772;28;20051;-77
2021/08/26 04:10:46;;;;;;;8.30;2.90;;;17.30;88.20;;;;;;5039176;28;20024;-77
2021/08/26 04:13:12;;;;;;;7.43;2.80;;;17.30;88.20;;;;;;5054478;28;20025;-77
2021/08/26 04:15:37;;;;;;;11.27;3.05;;;17.30;87.70;;;;;;5055482;28;20085;-77
2021/08/26 04:18:03;;;;;;;13.98;3.42;;;17.20;87.20;;;;;;5073273;28;20025;-77
2021/08/26 04:20:28;;;;;;;16.25;5.00;;;17.20;86.50;;;;;;5054581;28;20025;-77
2021/08/26 04:22:54;;;;;;;13.73;4.57;;;17.20;85.70;;;;;;5054991;28;20032;-77
2021/08/26 04:25:20;;;;;;;15.85;5.05;;;17.20;85.80;;;;;;5038653;28;20186;-77
2021/08/26 04:27:45;;;;;;;12.82;4.68;;;17.20;85.40;;;;;;5055038;28;20029;-77
2021/08/26 04:30:11;;;;;;;12.45;3.80;;;17.10;85.20;;;;;;5054771;28;20505;-77
2021/08/26 04:32:37;;;;;;;19.08;5.90;;;17.10;85.30;;;;;;5036622;28;20525;-77
2021/08/26 04:35:03;;;;;;;18.52;6.85;;;17.10;85.10;;;;;;5054896;28;20033;-77
2021/08/26 04:37:29;;;;;;;15.23;5.57;;;17.10;84.70;;;;;;5072717;28;20509;-77
2021/08/26 04:39:55;;;;;;;17.67;5.45;;;17.00;84.80;;;;;;5073034;28;20408;-77
2021/08/26 04:42:21;;;;;;;15.98;4.57;;;17.00;85.00;;;;;;5038296;28;20047;-76
2021/08/26 04:44:46;;;;;;;13.30;3.97;;;17.00;84.60;;;;;;5072755;28;20029;-77
2021/08/26 04:47:12;;;;;;;14.27;3.75;;;17.00;84.40;;;;;;5055081;28;20086;-77
2021/08/26 04:49:38;;;;;;;15.77;4.28;;;17.00;84.60;;;;;;5072853;28;20428;-77
2021/08/26 04:52:04;;;;;;;14.07;3.45;;;16.90;84.60;;;;;;5038347;28;20033;-77
2021/08/26 04:54:30;;;;;;;11.93;3.22;;;17.00;84.20;;;;;;5038450;28;20032;-77
2021/08/26 04:56:56;;;;;;;10.98;3.35;;;16.90;84.50;;;;;;5054328;28;20103;-77
2021/08/26 04:59:21;;;;;;;10.93;3.15;;;16.90;84.90;;;;;;5072927;28;20081;-77
2021/08/26 05:01:47;;;;;;;16.08;3.60;;;16.90;84.70;;;;;;5054619;28;20036;-77
2021/08/26 05:04:13;;;;;;;12.93;3.40;;;16.90;84.60;;;;;;5034951;28;20037;-77
2021/08/26 05:06:38;;;;;;;12.07;3.38;;;16.90;84.70;;;;;;5051731;28;20032;-77
2021/08/26 05:09:04;;;;;;;9.23;3.08;;;16.90;84.80;;;;;;5054601;28;20081;-77
2021/08/26 05:11:29;;;;;;;18.60;3.63;;;16.90;84.70;;;;;;5072503;28;20020;-77
2021/08/26 05:13:55;;;;;;;14.13;3.70;;;17.00;84.80;;;;;;5072169;28;20024;-77
2021/08/26 05:16:21;;;;;;;15.95;3.47;;;16.90;84.70;;;;;;5072335;28;20036;-77
2021/08/26 05:18:46;;;;;;;8.13;2.90;;;16.90;85.00;;;;;;5071797;28;20432;-77
2021/08/26 05:21:12;;;;;;;13.63;3.90;;;16.90;84.80;;;;;;5037047;28;20121;-77
2021/08/26 05:23:38;;;;;;;17.42;3.80;;;16.90;84.30;;;;;;5072611;28;20054;-76
2021/08/26 05:26:04;;;;;;;11.38;3.30;;;16.90;84.30;;;;;;5037386;28;20048;-77
2021/08/26 05:28:29;;;;;;;12.77;3.53;;;17.00;84.60;;;;;;5072346;28;20422;-77
2021/08/26 05:30:55;;;;;;;10.85;2.83;;;17.00;84.60;;;;;;5071944;28;20028;-77
2021/08/26 05:33:21;;;;;;;9.55;3.08;;;17.00;84.60;;;;;;5071812;28;20029;-77
2021/08/26 05:35:46;;;;;;;11.95;3.00;;;17.00;84.50;;;;;;5037055;28;20028;-77
2021/08/26 05:38:13;;;;;;;22.65;4.18;;;17.00;84.40;;;;;;5053939;28;20045;-78
2021/08/26 05:40:39;;;;;;;14.70;3.85;;;17.00;84.00;;;;;;5071897;28;20496;-77
2021/08/26 05:43:04;;;;;;;13.13;3.47;;;17.00;84.20;;;;;;5054064;28;20041;-77
2021/08/26 05:45:30;;;;;;;15.50;3.38;;;17.00;84.00;;;;;;5053626;28;20469;-77
2021/08/26 05:47:56;;;;;;;14.25;3.45;;;17.00;83.70;;;;;;5071270;28;20032;-77
2021/08/26 05:50:23;;;;;;;15.23;3.28;;;17.00;83.30;;;;;;5070862;28;20093;-77
2021/08/26 05:52:49;;;;;;;12.15;3.35;;;17.00;84.00;;;;;;5053782;28;20527;-77
2021/08/26 05:55:16;;;;;;;13.77;3.38;;;17.00;83.20;;;;;;5053232;28;20159;-77
2021/08/26 05:57:42;;;;;;;12.40;3.20;;;17.00;83.10;;;;;;5053554;28;20044;-78
2021/08/26 06:00:08;;;;;;;14.52;3.28;;;17.00;83.20;;;;;;5054313;28;20032;-77
2021/08/26 06:02:34;;;;;;;13.55;2.90;;;17.00;83.00;;;;;;5070881;28;20025;-77
2021/08/26 06:04:59;;;;;;;17.38;3.38;;;17.10;83.00;;;;;;5054156;28;20058;-77
2021/08/26 06:07:25;;;;;;;13.18;3.10;;;17.10;82.70;;;;;;5071525;28;20036;-77
2021/08/26 06:09:51;;;;;;;13.23;3.40;;;17.10;82.50;;;;;;5054154;28;20032;-77
2021/08/26 06:12:16;;;;;;;14.32;3.20;;;17.20;82.40;;;;;;5036882;28;20440;-75
2021/08/26 06:14:42;;;;;;;10.60;2.90;;;17.10;82.10;;;;;;5053946;28;20034;-75
2021/08/26 06:17:08;;;;;;;13.50;3.40;;;17.20;82.20;;;;;;5053463;28;20086;-75
2021/08/26 06:19:33;;;;;;;13.88;2.90;;;17.20;81.80;;;;;;5071746;28;20029;-75
2021/08/26 06:21:59;;;;;;;12.48;3.00;;;17.20;81.10;;;;;;5053850;28;20037;-75
2021/08/26 06:24:25;;;;;;;13.43;2.75;;;17.20;81.30;;;;;;5037307;28;20024;-75
2021/08/26 06:26:50;;;;;;;12.27;3.00;;;17.20;81.50;;;;;;5053650;28;20481;-75
2021/08/26 06:29:16;;;;;;;16.48;3.13;;;17.30;81.30;;;;;;5037133;28;20115;-75
2021/08/26 06:31:42;;;;;;;14.30;2.97;;;17.30;81.10;;;;;;5036291;28;20058;-75
2021/08/26 06:34:07;;;;;;;17.08;3.15;;;17.30;80.70;;;;;;5070877;28;20040;-75
2021/08/26 06:36:33;;;;;;;15.07;2.60;;;17.30;80.90;;;;;;5038454;28;20048;-75
2021/08/26 06:38:59;;;;;;;8.10;2.45;;;17.40;80.90;;;;;;5074270;28;20135;-75
2021/08/26 06:41:25;;;;;;;10.30;3.13;;;17.40;80.40;;;;;;5056183;28;20067;-75
2021/08/26 06:43:51;;;;;;;20.65;4.25;;;17.40;80.90;;;;;;5056587;28;20474;-75
2021/08/26 06:46:16;;;;;;;13.23;3.42;;;17.50;80.40;;;;;;5074796;28;20033;-75
2021/08/26 06:48:42;;;;;;;10.35;3.05;;;17.50;80.10;;;;;;5074259;28;20415;-75
2021/08/26 06:51:08;;;;;;;16.23;3.53;;;17.50;79.70;;;;;;5056815;28;20098;-75
2021/08/26 06:53:33;;;;;;;14.23;3.03;;;17.50;79.90;;;;;;5040148;28;20467;-75
2021/08/26 06:55:59;;;;;;;12.30;3.33;;;17.50;80.00;;;;;;5057184;28;20466;-75
2021/08/26 06:58:25;;;;;;;12.68;3.25;;;17.60;79.80;;;;;;5074343;28;20032;-75
2021/08/26 07:00:50;;;;;;;11.98;2.75;;;17.60;79.50;;;;;;5074294;28;20037;-75
2021/08/26 07:03:16;;;;;;;12.55;3.10;;;17.50;79.40;;;;;;5056969;28;20385;-75
2021/08/26 07:05:42;;;;;;;14.43;3.30;;;17.50;79.70;;;;;;5073975;28;20119;-75
2021/08/26 07:08:07;;;;;;;11.98;3.33;;;17.60;79.90;;;;;;5040200;28;20123;-75
2021/08/26 07:10:33;;;;;;;13.65;3.28;;;17.60;79.50;;;;;;5056687;28;20056;-75
2021/08/26 07:12:58;;;;;;;12.60;2.90;;;17.60;79.40;;;;;;5074658;28;20025;-75
2021/08/26 07:15:25;;;;;;;10.52;3.38;;;17.60;79.50;;;;;;5074041;28;20062;-75
2021/08/26 07:17:52;;;;;;;24.65;3.80;;;17.60;79.50;;;;;;5056160;28;20086;-75
2021/08/26 07:20:17;;;;;;;17.70;3.08;;;17.70;79.60;;;;;;5073984;28;20028;-75
2021/08/26 07:22:43;;;;;;;12.02;3.25;;;17.70;79.20;;;;;;5056514;28;20025;-75
2021/08/26 07:25:10;;;;;;;11.75;2.78;;;17.70;79.20;;;;;;5056124;28;20107;-75
2021/08/26 07:27:36;;;;;;;14.02;3.28;;;17.70;79.40;;;;;;5039611;28;20036;-74
2021/08/26 07:30:02;;;;;;;11.48;2.60;;;17.80;78.80;;;;;;5055822;28;20614;-75
2021/08/26 07:32:28;;;;;;;21.27;4.03;;;17.80;78.80;;;;;;5039294;28;20028;-75
2021/08/26 07:34:54;;;;;;;17.50;3.40;;;17.80;78.50;;;;;;5039766;28;20043;-75
2021/08/26 07:37:20;;;;;;;16.13;3.25;;;17.90;78.50;;;;;;5073822;28;20080;-76
2021/08/26 07:39:45;;;;;;;16.02;3.25;;;17.90;78.40;;;;;;5039707;28;20374;-76
2021/08/26 07:42:11;;;;;;;12.27;3.17;;;18.10;78.50;;;;;;5073836;28;20035;-75
2021/08/26 07:44:37;;;;;;;12.77;2.60;;;18.20;77.90;;;;;;5074057;28;20119;-76
2021/08/26 07:47:03;;;;;;;13.82;2.72;;;18.40;76.90;;;;;;5073546;28;20032;-76
2021/08/26 07:49:28;;;;;;;11.25;2.70;;;18.70;75.60;;;;;;5073002;28;20024;-76
2021/08/26 07:51:54;;;;;;;13.57;2.60;;;19.00;75.20;;;;;;5055876;28;20510;-76
2021/08/26 07:54:20;;;;;;;14.55;2.72;;;19.30;74.80;;;;;;5037196;28;20063;-77
2021/08/26 07:56:45;;;;;;;9.52;2.75;;;19.50;73.50;;;;;;5073611;28;20365;-76
2021/08/26 07:59:11;;;;;;;10.73;2.63;;;19.50;73.30;;;;;;5073446;28;20029;-76
2021/08/26 08:01:36;;;;;;;11.38;2.75;;;19.50;73.30;;;;;;5055858;28;20500;-76
2021/08/26 08:04:02;;;;;;;15.38;3.22;;;19.50;73.20;;;;;;5073393;28;20037;-76
2021/08/26 08:06:28;;;;;;;10.73;2.67;;;19.40;73.40;;;;;;5055556;28;20123;-76
2021/08/26 08:08:53;;;;;;;9.30;2.30;;;19.30;73.70;;;;;;5038520;28;20087;-76
2021/08/26 08:11:19;;;;;;;15.18;2.80;;;19.20;73.20;;;;;;5072742;28;20021;-76
2021/08/26 08:13:45;;;;;;;10.32;2.15;;;19.10;72.80;;;;;;5054821;28;20024;-76
2021/08/26 08:16:11;;;;;;;11.48;2.47;;;19.00;72.90;;;;;;5054720;28;20123;-76
2021/08/26 08:18:37;;;;;;;11.05;2.47;;;19.00;72.60;;;;;;5071794;28;20036;-76
2021/08/26 08:21:03;;;;;;;11.80;2.60;;;19.00;73.00;;;;;;5055432;28;20098;-76
2021/08/26 08:23:30;;;;;;;12.73;2.40;;;18.90;73.10;;;;;;5037199;28;20036;-76
2021/08/26 08:25:56;;;;;;;9.27;2.30;;;18.90;73.30;;;;;;5054505;28;20032;-76
2021/08/26 08:28:22;;;;;;;10.57;2.58;;;18.80;73.50;;;;;;5072100;28;20032;-76
2021/08/26 08:30:48;;;;;;;13.00;2.40;;;18.70;73.80;;;;;;5054332;28;20024;-75
2021/08/26 08:33:14;;;;;;;10.90;2.10;;;18.70;73.10;;;;;;5072662;28;20033;-76
2021/08/26 08:35:40;;;;;;;10.77;2.45;;;18.60;73.20;;;;;;5071617;28;20028;-76
2021/08/26 08:38:06;;;;;;;8.65;2.03;;;18.60;74.00;;;;;;5053942;28;20124;-76
2021/08/26 08:40:32;;;;;;;11.68;2.30;;;18.70;73.50;;;;;;5072168;28;20111;-76
2021/08/26 08:42:59;;;;;;;12.15;2.30;;;18.80;72.90;;;;;;5072539;28;20036;-76
2021/08/26 08:45:25;;;;;;;10.20;2.50;;;18.80;73.30;;;;;;5072512;28;20040;-75
2021/08/26 08:47:52;;;;;;;12.65;2.20;;;18.90;73.50;;;;;;5072240;28;20399;-76
2021/08/26 08:50:23;;;;;;;8.50;1.90;;;19.00;73.20;;;;;;5054414;28;20032;-76
2021/08/26 08:52:49;;;;;;;9.30;2.03;;;19.10;72.70;;;;;;5054651;28;20169;-75
2021/08/26 08:55:17;;;;;;;7.18;2.45;;;19.10;72.10;;;;;;5072156;28;20028;-76
2021/08/26 08:57:43;;;;;;;10.45;2.00;;;19.20;71.70;;;;;;5038193;28;20035;-76
2021/08/26 09:00:12;;;;;;;11.50;2.83;;;19.30;71.90;;;;;;5071773;28;20024;-75
2021/08/26 09:02:38;;;;;;;;;;;19.30;71.40;;;;;;5072709;28;20525;-76
2021/08/26 09:05:04;;;;;;;10.93;2.50;;;19.20;70.60;;;;;;5072527;28;20003;-76
2021/08/26 09:07:32;;;;;;;14.27;3.20;;;19.20;71.30;;;;;;5072118;28;20059;-75
2021/08/26 09:09:58;;;;;;;11.70;3.10;;;19.10;72.10;;;;;;5054393;28;20044;-75
2021/08/26 09:12:49;;;;;;;14.35;3.15;;;19.00;72.90;;;;;;5054066;28;20028;-76
2021/08/26 09:15:21;;;;;;;12.82;3.13;;;18.80;74.90;;;;;;5062289;28;20051;-75
2021/08/26 09:17:47;;;;;;;16.13;4.28;;;18.70;75.90;;;;;;5037592;28;20401;-76
2021/08/26 09:20:16;;;;;;;12.55;3.00;;;18.70;76.30;;;;;;5054166;28;20840;-75
2021/08/26 09:22:42;;;;;;;8.70;2.90;;;18.80;76.60;;;;;;5071879;28;20032;-75
2021/08/26 09:25:09;;;;;;;9.52;2.22;;;18.90;76.70;;;;;;5071635;28;20501;-76
2021/08/26 09:27:39;;;;;;;8.05;2.70;;;19.00;76.30;;;;;;5072020;28;20036;-76
2021/08/26 09:30:07;;;;;;;5.63;2.17;;;19.10;76.10;;;;;;5072075;28;20021;-75
2021/08/26 09:32:59;;;;;;;10.10;2.53;;;19.10;76.20;;;;;;5053123;28;20028;-76
2021/08/26 09:35:29;;;;;;;9.75;2.60;;;19.10;75.60;;;;;;5036223;28;20032;-75
2021/08/26 09:37:57;;;;;;;14.38;2.53;;;19.00;75.30;;;;;;5070797;28;20051;-75
2021/08/26 09:40:25;;;;;;;10.10;2.67;;;19.00;75.50;;;;;;5071758;28;20440;-76
2021/08/26 09:43:03;;;;;;;8.73;2.50;;;19.10;75.50;;;;;;5053956;28;20405;-76
2021/08/26 09:45:30;;;;;;;8.03;2.47;;;19.10;76.00;;;;;;5071380;28;20036;-76
2021/08/26 09:48:00;;;;;;;7.60;2.22;;;19.10;76.30;;;;;;5071484;28;20032;-76
2021/08/26 09:50:47;;;;;;;10.25;2.65;;;19.10;76.00;;;;;;5070936;28;20047;-76
2021/08/26 09:53:21;;;;;;;6.63;2.17;;;19.20;76.50;;;;;;5053062;28;20091;-75
2021/08/26 09:55:58;;;;;;;11.25;2.33;;;19.40;75.80;;;;;;5071693;28;20103;-75
2021/08/26 09:58:27;;;;;;;8.60;2.65;;;19.70;74.40;;;;;;5070542;28;20497;-75
2021/08/26 10:01:09;;;;;;;7.07;1.90;;;19.90;73.70;;;;;;5071655;28;20036;-76
2021/08/26 10:03:35;;;;;;;9.98;3.10;;;20.00;73.60;;;;;;5071659;28;20028;-75
2021/08/26 10:06:01;;;;;;;9.82;2.55;;;20.10;73.00;;;;;;5070738;28;20041;-75
2021/08/26 10:08:30;;;;;;;11.98;3.55;;;20.20;72.40;;;;;;5053432;28;20028;-75
2021/08/26 10:10:56;;;;;;;11.18;3.10;;;20.30;71.60;;;;;;5072485;28;20382;-76
2021/08/26 10:13:22;;;;;;;12.55;3.63;;;20.50;71.10;;;;;;5057313;28;20021;-76
2021/08/26 10:15:48;;;;;;;11.80;2.88;;;20.50;70.90;;;;;;5057166;28;20048;-75
2021/08/26 10:18:17;;;;;;;11.73;3.03;;;20.50;70.70;;;;;;5075411;28;20103;-75
2021/08/26 10:20:43;;;;;;;13.18;3.72;;;20.50;70.70;;;;;;5075084;28;20033;-75
2021/08/26 10:23:11;;;;;;;13.02;3.72;;;20.50;70.60;;;;;;5075428;28;20035;-75
2021/08/26 10:25:42;;;;;;;8.33;3.40;;;20.50;71.30;;;;;;5075272;28;20466;-75
2021/08/26 10:28:09;;;;;;;10.77;2.55;;;20.50;72.00;;;;;;5075389;28;20032;-75
2021/08/26 10:30:37;;;;;;;10.65;2.20;;;20.40;71.20;;;;;;5075152;28;20427;-75
2021/08/26 10:33:12;;;;;;;9.90;2.35;;;20.20;71.70;;;;;;5074038;28;20029;-75
2021/08/26 10:35:50;;;;;;;8.18;2.00;;;19.90;72.70;;;;;;5059543;28;20656;-75
2021/08/26 10:38:36;;;;;;;7.60;1.97;;;19.50;74.00;;;;;;5074375;28;20034;-75
2021/08/26 10:41:19;;;;;;;7.88;2.13;;;19.30;75.80;;;;;;5074505;28;20299;-75
2021/08/26 10:44:00;;;;;;;12.20;3.58;;;19.10;76.70;;;;;;5073677;28;20029;-76
2021/08/26 10:46:46;;;;;;;9.35;2.90;;;19.00;77.30;;;;;;5039898;28;20024;-75
2021/08/26 10:49:12;;;;;;;8.77;2.47;;;19.00;77.90;;;;;;5056788;28;20032;-75
2021/08/26 10:51:45;;;;;;;9.18;2.40;;;19.00;78.20;;;;;;5056760;28;20025;-75
2021/08/26 10:54:26;;;;;;;7.28;1.58;;;19.10;78.20;;;;;;5074619;28;20021;-75
2021/08/26 10:56:52;;;;;;;8.43;1.70;;;19.10;77.20;;;;;;5056616;28;20374;-76
2021/08/26 10:59:29;;;;;;;4.43;1.17;;;19.10;77.20;;;;;;5074611;28;20381;-76
2021/08/26 11:01:55;;;;;;;3.67;1.20;;;19.10;77.30;;;;;;5056312;28;20085;-75
2021/08/26 11:04:37;;;;;;;6.13;1.58;;;19.10;77.00;;;;;;5039597;28;20028;-75
2021/08/26 11:07:04;;;;;;;7.93;1.85;;;19.10;77.70;;;;;;5073897;28;20070;-75
2021/08/26 11:09:34;;;;;;;13.02;2.25;;;19.10;78.20;;;;;;5073968;28;20119;-75
2021/08/26 11:12:20;;;;;;;6.88;2.35;;;19.10;78.90;;;;;;5074142;28;20044;-76
2021/08/26 11:14:47;;;;;;;8.23;2.08;;;19.10;79.80;;;;;;5074443;28;20050;-74
2021/08/26 11:17:25;;;;;;;6.57;2.13;;;19.10;79.70;;;;;;5074254;28;20024;-74
2021/08/26 11:19:51;;;;;;;7.88;2.35;;;19.20;79.80;;;;;;5056634;28;20035;-74
2021/08/26 11:22:17;;;;;;;6.57;2.45;;;19.30;80.00;;;;;;5055272;28;20024;-74
2021/08/26 11:24:42;;;;;;;7.28;1.83;;;19.60;79.30;;;;;;5073731;28;20036;-75
2021/08/26 11:27:23;;;;;;;7.18;2.10;;;19.70;78.90;;;;;;5073988;28;20025;-74
2021/08/26 11:29:50;;;;;;;6.38;2.13;;;19.90;78.70;;;;;;5073820;28;20035;-74
2021/08/26 11:32:18;;;;;;;8.27;2.33;;;20.10;78.00;;;;;;5056298;28;20032;-74
2021/08/26 11:34:49;;;;;;;6.70;2.00;;;20.20;77.10;;;;;;5039640;28;20033;-74
2021/08/26 11:37:14;;;;;;;5.18;2.10;;;20.30;76.70;;;;;;5054746;28;20451;-73
2021/08/26 11:40:03;;;;;;;6.57;2.05;;;20.40;75.30;;;;;;5055110;28;20077;-74
2021/08/26 11:42:49;;;;;;;5.55;2.05;;;20.50;74.90;;;;;;5062566;28;20033;-74
2021/08/26 11:45:17;;;;;;;7.38;2.25;;;20.50;74.50;;;;;;5053943;28;20029;-74
2021/08/26 11:47:53;;;;;;;6.60;2.10;;;20.60;74.60;;;;;;5071390;28;20028;-75
2021/08/26 11:50:31;;;;;;;8.35;2.35;;;20.70;73.80;;;;;;5055570;28;20029;-74
2021/08/26 11:53:01;;;;;;;7.22;2.10;;;20.70;72.90;;;;;;5073556;28;20040;-74
2021/08/26 11:55:30;;;;;;;4.20;1.80;;;20.70;73.50;;;;;;5073796;28;20032;-74
2021/08/26 11:58:03;;;;;;;;;;;20.70;72.60;;;;;;5055967;28;20028;-74
2021/08/26 12:00:29;;;;;;;6.78;2.00;;;20.70;72.70;;;;;;5072958;28;19909;-75
2021/08/26 12:03:00;;;;;;;6.90;1.75;;;20.80;73.30;;;;;;5072527;28;20037;-75
2021/08/26 12:05:28;;;;;;;11.15;2.03;;;20.90;72.30;;;;;;5055099;28;20029;-74
2021/08/26 12:07:55;;;;;;;7.78;1.80;;;21.00;72.50;;;;;;5054558;28;20063;-74
2021/08/26 12:10:24;;;;;;;7.35;2.20;;;21.00;71.60;;;;;;5055320;28;20027;-74
2021/08/26 12:13:06;;;;;;;9.10;1.90;;;21.00;71.30;;;;;;5073340;28;20100;-75
2021/08/26 12:15:36;;;;;;;5.28;1.40;;;21.10;71.00;;;;;;5054855;28;20123;-74
2021/08/26 12:18:21;;;;;;;4.57;1.50;;;21.00;70.70;;;;;;5073378;28;20029;-74
2021/08/26 12:21:05;;;;;;;6.95;1.50;;;21.10;70.40;;;;;;5072945;28;20507;-74
2021/08/26 12:23:33;;;;;;;4.50;1.40;;;21.10;70.00;;;;;;5072926;28;20037;-75
2021/08/26 12:26:20;;;;;;;4.68;1.40;;;21.10;69.70;;;;;;5055385;28;20025;-74
2021/08/26 12:28:56;;;;;;;7.43;1.98;;;21.10;69.70;;;;;;5073302;28;20029;-74
2021/08/26 12:31:22;;;;;;;5.63;1.75;;;21.20;69.10;;;;;;5054919;28;20481;-74
2021/08/26 12:34:01;;;;;;;7.47;1.80;;;21.10;69.10;;;;;;5053913;28;20047;-74
2021/08/26 12:36:28;;;;;;;6.60;1.83;;;21.00;69.40;;;;;;5072759;28;20083;-74
2021/08/26 12:38:54;;;;;;;7.72;2.13;;;20.90;70.40;;;;;;5072454;28;20110;-74
2021/08/26 12:41:24;;;;;;;6.10;1.92;;;20.90;70.60;;;;;;5054588;28;20024;-74
2021/08/26 12:43:55;;;;;;;7.57;2.22;;;20.80;70.90;;;;;;5054885;28;20056;-74
2021/08/26 12:46:32;;;;;;;9.02;2.20;;;20.70;70.10;;;;;;5072893;28;20485;-74
2021/08/26 12:49:11;;;;;;;5.00;1.85;;;20.50;70.50;;;;;;5072379;28;20024;-74